Time;durP1;ratioP1;P1;durP2;ratioP2;P2;SDS_P1;SDS_P2;PMS_P1;PMS_P2;Temp;Humidity;BMP_temperature;BMP_pressure;BME280_temperature;BME280_humidity;BME280_pressure;Samples;Min_cycle;Max_cycle;Signal;HPM_P1;HPM_P2
2022/07/27 00:01:04;;;;;;;2.95;1.08;;;;;;;20.04;61.70;98633.47;4174572;28;20235;-52
2022/07/27 00:03:06;;;;;;;1.70;1.27;;;;;;;20.01;61.84;98639.63;4176458;28;20781;-53
2022/07/27 00:05:08;;;;;;;1.73;1.30;;;;;;;20.00;61.87;98632.44;4170795;28;20783;-53
2022/07/27 00:07:09;;;;;;;1.35;1.13;;;;;;;19.99;61.86;98630.78;4171252;28;20207;-54
2022/07/27 00:09:11;;;;;;;3.08;1.42;;;;;;;19.98;62.00;98634.72;4155694;28;20205;-54
2022/07/27 00:11:13;;;;;;;2.05;1.10;;;;;;;19.97;62.01;98633.06;4166921;28;20227;-52
2022/07/27 00:13:15;;;;;;;1.20;1.10;;;;;;;19.93;62.19;98626.47;4171350;28;20214;-53
2022/07/27 00:15:17;;;;;;;8.57;1.48;;;;;;;19.96;61.92;98632.22;4171418;28;20216;-53
2022/07/27 00:17:22;;;;;;;1.95;1.20;;;;;;;20.00;61.88;98632.44;4170725;28;20203;-53
2022/07/27 00:19:24;;;;;;;3.65;1.05;;;;;;;19.93;62.04;98632.84;4170747;28;20208;-53
2022/07/27 00:21:26;;;;;;;1.20;1.10;;;;;;;19.98;61.90;98638.28;4153084;28;20634;-53
2022/07/27 00:23:27;;;;;;;1.92;1.63;;;;;;;19.91;62.21;98634.28;4174204;28;20208;-52
2022/07/27 00:25:29;;;;;;;1.40;1.20;;;;;;;19.89;61.92;98633.75;4168573;28;20742;-54
2022/07/27 00:27:31;;;;;;;1.75;1.40;;;;;;;19.84;62.24;98633.88;4170643;28;20283;-53
2022/07/27 00:29:33;;;;;;;1.75;1.10;;;;;;;19.83;62.30;98632.19;4176161;28;20243;-52
2022/07/27 00:31:35;;;;;;;1.40;1.30;;;;;;;19.83;62.23;98623.88;4183839;28;20238;-53
2022/07/27 00:33:37;;;;;;;1.48;1.30;;;;;;;19.78;62.31;98623.97;4173646;28;20238;-53
2022/07/27 00:35:38;;;;;;;2.28;1.48;;;;;;;19.72;62.46;98625.22;4167738;28;20211;-54
2022/07/27 00:37:40;;;;;;;1.85;1.40;;;;;;;19.69;62.42;98614.69;4166586;28;20205;-54
2022/07/27 00:39:42;;;;;;;1.55;1.30;;;;;;;19.56;62.79;98618.28;4170854;28;20232;-53
2022/07/27 00:41:44;;;;;;;2.03;1.10;;;;;;;19.60;62.80;98622.09;4154463;28;20224;-54
2022/07/27 00:43:54;;;;;;;1.35;1.25;;;;;;;19.62;62.77;98625.38;4175898;28;20291;-54
2022/07/27 00:45:55;;;;;;;1.33;1.23;;;;;;;19.63;62.81;98627.03;4167173;28;20211;-53
2022/07/27 00:47:57;;;;;;;4.45;1.15;;;;;;;19.65;62.72;98619.22;4168627;28;20203;-53
2022/07/27 00:49:59;;;;;;;2.08;1.25;;;;;;;19.66;62.77;98626.44;4167908;28;20204;-52
2022/07/27 00:52:01;;;;;;;1.00;0.90;;;;;;;19.65;62.71;98617.25;4186656;28;20227;-52
2022/07/27 00:54:03;;;;;;;1.40;1.30;;;;;;;19.63;62.95;98615.91;4169885;28;20231;-52
2022/07/27 00:56:05;;;;;;;0.98;0.95;;;;;;;19.71;62.64;98612.47;4169200;28;20286;-53
2022/07/27 00:58:10;;;;;;;1.20;1.10;;;;;;;19.68;62.66;98613.88;4167648;28;20674;-53
2022/07/27 01:00:12;;;;;;;1.58;1.10;;;;;;;19.71;62.72;98618.81;4167118;28;20234;-52
2022/07/27 01:02:13;;;;;;;1.50;1.00;;;;;;;19.67;62.94;98622.53;4170554;28;20204;-52
2022/07/27 01:04:20;;;;;;;3.45;1.30;;;;;;;19.67;62.62;98605.84;4176049;28;20196;-53
2022/07/27 01:06:22;;;;;;;1.42;1.20;;;;;;;19.67;62.62;98614.19;4176538;28;20204;-53
2022/07/27 01:08:28;;;;;;;1.55;1.45;;;;;;;19.65;62.48;98608.94;4157693;28;20217;-53
2022/07/27 01:10:30;;;;;;;2.60;1.23;;;;;;;19.65;62.65;98608.13;4187677;28;20227;-53
2022/07/27 01:12:31;;;;;;;1.67;1.30;;;;;;;19.67;62.62;98608.63;4173335;28;20199;-52
2022/07/27 01:14:33;;;;;;;1.30;1.20;;;;;;;19.66;62.66;98615.31;4176933;28;20223;-52
2022/07/27 01:16:35;;;;;;;1.60;1.50;;;;;;;19.64;62.73;98618.41;4160966;28;20204;-52
2022/07/27 01:18:38;;;;;;;1.40;1.30;;;;;;;19.63;62.76;98624.25;4173258;28;20211;-53
2022/07/27 01:20:41;;;;;;;2.45;1.40;;;;;;;19.59;62.96;98621.25;4175869;28;20232;-53
2022/07/27 01:22:42;;;;;;;2.00;1.30;;;;;;;19.58;62.88;98625.16;4184093;28;20200;-52
2022/07/27 01:24:44;;;;;;;1.48;1.15;;;;;;;19.56;62.98;98626.59;4171595;28;20662;-54
2022/07/27 01:26:47;;;;;;;2.50;1.27;;;;;;;19.57;62.94;98629.06;4159807;28;20212;-53
2022/07/27 01:28:48;;;;;;;2.33;1.38;;;;;;;19.57;63.20;98628.28;4185297;28;20207;-55
2022/07/27 01:30:50;;;;;;;1.98;1.60;;;;;;;19.57;63.11;98625.50;4172031;28;20231;-53
2022/07/27 01:32:59;;;;;;;2.80;1.63;;;;;;;19.52;63.34;98620.03;4175173;28;20236;-53
2022/07/27 01:35:01;;;;;;;1.13;1.10;;;;;;;19.53;63.24;98622.50;4175123;28;20650;-54
2022/07/27 01:37:03;;;;;;;2.08;1.13;;;;;;;19.53;63.22;98627.22;4175307;28;20783;-54
2022/07/27 01:39:05;;;;;;;1.40;1.30;;;;;;;19.51;63.49;98629.50;4171124;28;20259;-54
2022/07/27 01:41:07;;;;;;;1.42;1.00;;;;;;;19.50;63.34;98625.88;4170914;28;20247;-53
2022/07/27 01:43:09;;;;;;;1.60;1.00;;;;;;;19.51;63.39;98619.19;4172635;28;20208;-54
2022/07/27 01:45:10;;;;;;;1.25;1.13;;;;;;;19.53;63.11;98624.44;4176669;28;20616;-53
2022/07/27 01:47:12;;;;;;;1.52;1.13;;;;;;;19.52;63.34;98618.06;4171763;28;20612;-54
2022/07/27 01:49:15;;;;;;;3.70;1.40;;;;;;;19.54;63.21;98617.75;4172188;28;20220;-52
2022/07/27 01:51:17;;;;;;;1.05;0.95;;;;;;;19.55;63.02;98623.00;4174254;28;20223;-53
2022/07/27 01:53:22;;;;;;;1.40;1.23;;;;;;;19.57;63.09;98619.94;4172302;28;20662;-53
2022/07/27 01:55:24;;;;;;;1.67;1.35;;;;;;;19.62;63.18;98622.59;4171394;28;20244;-53
2022/07/27 01:57:26;;;;;;;1.10;1.00;;;;;;;19.60;63.17;98624.88;4189487;28;20210;-52
2022/07/27 01:59:27;;;;;;;1.95;1.27;;;;;;;19.62;63.18;98617.03;4174486;28;20204;-55
2022/07/27 02:01:29;;;;;;;2.95;1.27;;;;;;;19.58;63.46;98624.34;4173663;28;20228;-53
2022/07/27 02:03:31;;;;;;;2.15;1.27;;;;;;;19.59;63.26;98614.91;4171140;28;20212;-54
2022/07/27 02:05:35;;;;;;;4.10;1.30;;;;;;;19.58;63.25;98613.25;4171730;28;20655;-54
2022/07/27 02:07:38;;;;;;;2.42;1.00;;;;;;;19.56;63.23;98612.72;4171043;28;20585;-54
2022/07/27 02:09:40;;;;;;;1.90;1.10;;;;;;;19.53;63.49;98605.00;4175655;28;20204;-53
2022/07/27 02:14:02;;;;;;;1.23;1.10;;;;;;;19.56;63.35;98604.38;4172421;28;20227;-55
2022/07/27 02:16:04;;;;;;;2.15;1.20;;;;;;;19.54;63.56;98601.94;4172659;28;20264;-54
2022/07/27 02:18:17;;;;;;;1.83;1.35;;;;;;;19.54;63.59;98606.66;4174368;28;20253;-53
2022/07/27 02:20:35;;;;;;;2.10;1.40;;;;;;;19.51;63.69;98602.53;4170901;28;20290;-53
2022/07/27 02:22:37;;;;;;;2.55;1.40;;;;;;;19.50;63.67;98602.81;4189082;28;20219;-53
2022/07/27 02:24:39;;;;;;;2.47;0.98;;;;;;;19.49;63.71;98604.81;4171200;28;20204;-54
2022/07/27 02:30:04;;;;;;;1.30;1.10;;;;;;;19.49;63.72;98603.97;4170115;28;20676;-53
2022/07/27 02:32:06;;;;;;;1.23;1.13;;;;;;;19.48;63.72;98613.41;4171196;28;20200;-53
2022/07/27 02:34:07;;;;;;;1.88;1.10;;;;;;;19.47;63.79;98623.72;4175758;28;20207;-54
2022/07/27 02:36:09;;;;;;;1.35;1.00;;;;;;;19.47;63.89;98617.34;4176450;28;20277;-52
2022/07/27 02:38:10;;;;;;;3.42;1.20;;;;;;;19.49;63.73;98617.84;4177952;28;20769;-54
2022/07/27 02:40:14;;;;;;;1.35;1.17;;;;;;;19.48;63.72;98618.97;4173004;28;20199;-54
2022/07/27 02:42:16;;;;;;;1.17;1.10;;;;;;;19.49;63.81;98620.63;4175997;28;20204;-53
2022/07/27 02:44:19;;;;;;;0.80;0.80;;;;;;;19.51;63.47;98618.38;4185718;28;20685;-54
2022/07/27 02:46:20;;;;;;;2.80;0.98;;;;;;;19.53;63.74;98618.91;4172446;28;20227;-53
2022/07/27 02:48:22;;;;;;;2.95;1.13;;;;;;;19.50;63.86;98616.72;4169477;28;20668;-54
2022/07/27 02:50:24;;;;;;;1.58;1.10;;;;;;;19.48;64.04;98618.97;4172479;28;20225;-53
2022/07/27 02:52:25;;;;;;;1.40;1.10;;;;;;;19.47;63.83;98617.34;4169559;28;20282;-55
2022/07/27 02:54:30;;;;;;;3.53;1.17;;;;;;;19.49;64.02;98615.91;4171766;28;20208;-52
2022/07/27 02:56:32;;;;;;;2.70;1.27;;;;;;;19.48;63.80;98605.09;4169906;28;20204;-53
2022/07/27 02:58:33;;;;;;;1.70;1.10;;;;;;;19.49;63.93;98603.97;4172826;28;20254;-55
2022/07/27 03:00:35;;;;;;;1.17;1.08;;;;;;;19.47;64.04;98609.00;4169928;28;20230;-53
2022/07/27 03:02:37;;;;;;;2.70;1.10;;;;;;;19.46;64.04;98601.81;4169950;28;20258;-53
2022/07/27 03:04:39;;;;;;;1.48;1.20;;;;;;;19.38;64.41;98597.78;4155828;28;20217;-53
2022/07/27 03:06:41;;;;;;;1.17;1.08;;;;;;;19.36;64.41;98597.25;4168965;28;20593;-52
2022/07/27 03:08:43;;;;;;;1.67;1.10;;;;;;;19.32;64.58;98603.72;4172855;28;20261;-54
2022/07/27 03:10:44;;;;;;;1.05;0.95;;;;;;;19.31;64.52;98597.34;4171153;28;20286;-52
2022/07/27 03:12:49;;;;;;;1.48;1.00;;;;;;;19.43;64.48;98605.19;4176286;28;20208;-52
2022/07/27 03:14:51;;;;;;;2.63;1.08;;;;;;;19.33;64.69;98606.22;4176333;28;20277;-53
2022/07/27 03:16:52;;;;;;;1.75;0.90;;;;;;;19.37;64.60;98609.19;4173656;28;20597;-53
2022/07/27 03:18:54;;;;;;;2.13;1.10;;;;;;;19.38;64.54;98608.06;4170977;28;20298;-54
2022/07/27 03:20:56;;;;;;;1.45;0.98;;;;;;;19.35;64.95;98614.22;4170698;28;20326;-53
2022/07/27 03:22:58;;;;;;;1.48;0.85;;;;;;;19.31;64.51;98611.22;4169681;28;20212;-54
2022/07/27 03:25:00;;;;;;;0.82;0.75;;;;;;;19.30;64.66;98601.25;4173921;28;20203;-53
2022/07/27 03:27:02;;;;;;;1.13;0.98;;;;;;;19.30;64.73;98605.97;4169561;28;20246;-52
2022/07/27 03:29:03;;;;;;;1.20;1.10;;;;;;;19.32;64.73;98601.75;4170533;28;20242;-53
2022/07/27 03:31:05;;;;;;;0.70;0.70;;;;;;;19.25;65.07;98603.31;4172587;28;20239;-52
2022/07/27 03:33:07;;;;;;;1.80;1.65;;;;;;;19.25;65.00;98593.00;4176105;28;20666;-54
2022/07/27 03:35:09;;;;;;;4.40;1.15;;;;;;;19.13;65.34;98606.50;4170792;28;20208;-53
2022/07/27 03:37:10;;;;;;;1.23;0.90;;;;;;;19.05;65.56;98603.59;4169609;28;20231;-52
2022/07/27 03:39:12;;;;;;;1.17;0.90;;;;;;;18.98;65.84;98606.75;4169615;28;20563;-53
2022/07/27 03:41:14;;;;;;;1.40;1.27;;;;;;;18.90;66.13;98613.00;4174356;28;20231;-52
2022/07/27 03:43:16;;;;;;;3.38;1.02;;;;;;;18.92;66.18;98607.16;4176482;28;20308;-52
2022/07/27 03:45:18;;;;;;;1.08;0.98;;;;;;;18.93;66.20;98622.66;4171339;28;20201;-52
2022/07/27 03:47:20;;;;;;;1.30;1.20;;;;;;;18.86;66.50;98620.25;4171596;28;20629;-52
2022/07/27 03:49:21;;;;;;;2.58;0.88;;;;;;;18.76;66.73;98622.34;4171966;28;20216;-53
2022/07/27 03:51:23;;;;;;;1.60;0.82;;;;;;;18.81;66.46;98625.06;4170951;28;21332;-54
2022/07/27 03:53:25;;;;;;;1.13;1.00;;;;;;;18.90;66.36;98617.69;4168898;28;20683;-54
2022/07/27 03:55:27;;;;;;;1.30;0.90;;;;;;;18.90;66.26;98623.25;4171417;28;20678;-53
2022/07/27 03:57:29;;;;;;;1.45;0.90;;;;;;;18.81;66.53;98619.53;4186117;28;20203;-52
2022/07/27 03:59:31;;;;;;;2.65;1.00;;;;;;;18.88;66.55;98625.50;4174985;28;20195;-53
2022/07/27 04:01:32;;;;;;;4.32;0.90;;;;;;;18.81;66.80;98619.53;4172642;28;20220;-52
2022/07/27 04:03:34;;;;;;;1.73;1.02;;;;;;;18.91;66.41;98613.84;4183399;28;20219;-53
2022/07/27 04:05:39;;;;;;;2.05;0.82;;;;;;;18.78;66.75;98614.59;4176487;28;20691;-53
2022/07/27 04:07:41;;;;;;;1.33;0.90;;;;;;;18.82;66.82;98622.00;4175760;28;21184;-53
2022/07/27 04:09:42;;;;;;;0.90;0.80;;;;;;;18.83;66.79;98622.81;4175543;28;20234;-53
2022/07/27 04:11:47;;;;;;;2.25;1.08;;;;;;;18.82;66.79;98615.63;4171204;28;20240;-53
2022/07/27 04:13:55;;;;;;;1.02;0.93;;;;;;;18.82;66.82;98624.78;4175918;28;20274;-53
2022/07/27 04:15:56;;;;;;;2.00;1.17;;;;;;;18.86;66.61;98611.94;4169840;28;20689;-53
2022/07/27 04:17:58;;;;;;;2.05;1.00;;;;;;;18.89;66.68;98616.06;4170003;28;20231;-52
2022/07/27 04:20:00;;;;;;;3.05;1.02;;;;;;;18.82;66.83;98615.63;4142348;28;20233;-54
2022/07/27 04:22:02;;;;;;;1.30;0.90;;;;;;;18.86;66.64;98622.22;4142547;28;20264;-52
2022/07/27 04:24:05;;;;;;;1.00;0.80;;;;;;;18.86;66.79;98611.13;4137892;28;20275;-52
2022/07/27 04:26:07;;;;;;;0.90;0.90;;;;;;;18.86;66.85;98608.34;4170100;28;20208;-53
2022/07/27 04:28:09;;;;;;;0.85;0.85;;;;;;;18.84;67.04;98616.97;4167839;28;20299;-52
2022/07/27 04:30:11;;;;;;;1.27;0.80;;;;;;;18.87;66.86;98610.00;4166940;28;20227;-53
2022/07/27 04:32:13;;;;;;;2.63;1.00;;;;;;;18.85;66.91;98615.03;4154172;28;20228;-52
2022/07/27 04:34:14;;;;;;;0.93;0.80;;;;;;;18.76;67.30;98611.25;4152516;28;20208;-54
2022/07/27 04:36:16;;;;;;;2.03;1.20;;;;;;;18.79;67.18;98605.94;4158034;28;20224;-53
2022/07/27 04:38:18;;;;;;;2.58;1.27;;;;;;;18.70;67.53;98606.91;4157047;28;20204;-54
2022/07/27 04:40:19;;;;;;;1.65;1.17;;;;;;;18.72;67.66;98601.91;4161607;28;20243;-53
2022/07/27 04:42:21;;;;;;;1.58;1.00;;;;;;;18.71;67.44;98603.84;4162075;28;20610;-54
2022/07/27 04:44:23;;;;;;;2.60;0.90;;;;;;;18.67;67.69;98613.91;4158936;28;20638;-54
2022/07/27 04:46:26;;;;;;;2.58;1.17;;;;;;;18.74;67.48;98607.97;4159436;28;20647;-54
2022/07/27 04:48:27;;;;;;;1.15;1.05;;;;;;;18.67;67.68;98608.38;4153560;28;20212;-54
2022/07/27 04:50:29;;;;;;;1.48;0.80;;;;;;;18.72;67.45;98615.78;4161135;28;20618;-53
2022/07/27 04:52:31;;;;;;;3.17;1.30;;;;;;;18.66;68.00;98611.44;4154486;28;20263;-53
2022/07/27 04:54:33;;;;;;;3.58;1.20;;;;;;;18.69;67.70;98616.38;4150682;28;20205;-53
2022/07/27 04:56:34;;;;;;;1.65;0.88;;;;;;;18.77;67.66;98624.03;4152468;28;20232;-54
2022/07/27 04:58:36;;;;;;;1.55;1.10;;;;;;;18.68;67.82;98623.03;4154111;28;20232;-54
2022/07/27 05:00:38;;;;;;;2.25;1.10;;;;;;;18.72;67.69;98627.69;4144797;28;20670;-53
2022/07/27 05:02:40;;;;;;;1.10;0.80;;;;;;;18.69;67.62;98630.22;4159913;28;20634;-52
2022/07/27 05:04:42;;;;;;;0.90;0.70;;;;;;;18.73;67.83;98632.09;4146420;28;20202;-52
2022/07/27 05:06:43;;;;;;;1.90;1.08;;;;;;;18.73;67.91;98631.28;4170902;28;20208;-53
2022/07/27 05:08:45;;;;;;;6.13;1.00;;;;;;;18.73;67.81;98634.88;4142039;28;20209;-51
2022/07/27 05:10:46;;;;;;;2.33;1.23;;;;;;;18.69;67.89;98633.00;4155273;28;20222;-53
2022/07/27 05:12:48;;;;;;;2.70;1.25;;;;;;;18.66;68.22;98639.16;4155644;28;20562;-53
2022/07/27 05:14:50;;;;;;;2.70;1.15;;;;;;;18.74;67.80;98635.72;4155429;28;20292;-52
2022/07/27 05:16:52;;;;;;;4.55;0.85;;;;;;;18.67;68.07;98640.81;4146348;28;20626;-52
2022/07/27 05:18:54;;;;;;;2.25;0.95;;;;;;;18.76;67.70;98644.53;4161725;28;20221;-52
2022/07/27 05:20:55;;;;;;;2.95;0.85;;;;;;;18.76;67.74;98645.38;4158103;28;20235;-53
2022/07/27 05:22:57;;;;;;;2.45;1.38;;;;;;;18.63;68.24;98640.56;4158796;28;20205;-51
2022/07/27 05:25:02;;;;;;;1.80;0.70;;;;;;;18.71;67.95;98652.97;4162210;28;20251;-53
2022/07/27 05:27:05;;;;;;;1.70;0.90;;;;;;;18.74;67.95;98652.34;4162617;28;20201;-52
2022/07/27 05:29:10;;;;;;;2.33;1.02;;;;;;;18.80;67.86;98659.47;4144929;28;20233;-52
2022/07/27 05:31:12;;;;;;;1.13;0.80;;;;;;;18.83;67.63;98653.31;4162915;28;20258;-53
2022/07/27 05:33:17;;;;;;;2.33;0.90;;;;;;;18.82;67.74;98646.13;4157292;28;20606;-53
2022/07/27 05:35:19;;;;;;;2.83;0.73;;;;;;;18.88;67.40;98656.84;4155618;28;20205;-54
2022/07/27 05:37:21;;;;;;;1.55;0.90;;;;;;;18.89;67.41;98654.88;4156635;28;20565;-53
2022/07/27 05:39:23;;;;;;;2.33;1.02;;;;;;;18.91;67.43;98652.66;4156040;28;21171;-52
2022/07/27 05:41:25;;;;;;;3.53;1.00;;;;;;;18.88;67.65;98656.00;4155401;28;20720;-52
2022/07/27 05:43:27;;;;;;;1.92;1.20;;;;;;;18.60;68.40;98656.97;4155251;28;20752;-52
2022/07/27 05:45:28;;;;;;;1.90;0.80;;;;;;;18.75;67.97;98662.31;4143887;28;20209;-52
2022/07/27 05:47:30;;;;;;;6.22;0.90;;;;;;;18.87;67.91;98668.25;4157490;28;20244;-51
2022/07/27 05:49:33;;;;;;;1.60;1.00;;;;;;;18.89;67.59;98663.22;4156930;28;20722;-52
2022/07/27 05:51:35;;;;;;;6.93;1.25;;;;;;;18.97;67.34;98673.66;4153924;28;20228;-52
2022/07/27 05:53:37;;;;;;;2.75;0.70;;;;;;;18.92;67.31;98676.50;4162830;28;20610;-52
2022/07/27 05:55:38;;;;;;;3.28;0.77;;;;;;;18.94;67.27;98679.78;4159440;28;20264;-52
2022/07/27 05:58:00;;;;;;;2.97;0.90;;;;;;;18.96;67.36;98677.53;4143639;28;20667;-53
2022/07/27 06:00:05;;;;;;;4.07;0.82;;;;;;;19.04;67.20;98676.88;4159036;28;20212;-52
2022/07/27 06:02:07;;;;;;;1.73;0.70;;;;;;;19.10;67.03;98683.97;4159514;28;20208;-53
2022/07/27 06:04:09;;;;;;;4.40;0.90;;;;;;;19.05;66.98;98681.28;4162554;28;20213;-51
2022/07/27 06:08:35;;;;;;;5.35;1.00;;;;;;;18.96;66.79;98686.69;4157326;28;20656;-52
2022/07/27 06:10:39;;;;;;;1.50;0.68;;;;;;;18.97;67.03;98684.75;4156991;28;20235;-53
2022/07/27 06:12:43;;;;;;;3.03;1.20;;;;;;;19.10;67.38;98683.97;4159561;28;20213;-53
2022/07/27 06:14:45;;;;;;;4.03;0.82;;;;;;;19.16;67.29;98683.59;4155898;28;20726;-51
2022/07/27 06:16:51;;;;;;;3.33;0.82;;;;;;;19.13;66.56;98689.72;4157218;28;20221;-52
2022/07/27 06:18:53;;;;;;;3.90;1.15;;;;;;;19.16;66.68;98694.69;4155141;28;20660;-52
2022/07/27 06:20:55;;;;;;;2.67;1.25;;;;;;;19.20;66.57;98697.72;4160150;28;20224;-52
2022/07/27 06:22:59;;;;;;;25.35;1.05;;;;;;;19.31;66.29;98696.44;4156757;28;20251;-51
2022/07/27 06:25:00;;;;;;;5.85;1.02;;;;;;;19.26;66.41;98696.53;4157978;28;20293;-54
2022/07/27 06:27:02;;;;;;;3.33;0.90;;;;;;;19.40;66.02;98695.47;4154488;28;20555;-53
2022/07/27 06:29:04;;;;;;;2.10;1.08;;;;;;;19.45;65.98;98705.66;4151060;28;20209;-53
2022/07/27 06:31:12;;;;;;;3.85;1.10;;;;;;;19.44;65.76;98702.03;4160755;28;20259;-51
2022/07/27 06:33:14;;;;;;;2.38;1.00;;;;;;;19.52;66.16;98703.31;4159638;28;20205;-52
2022/07/27 06:35:17;;;;;;;2.40;0.85;;;;;;;19.54;66.16;98706.59;4161181;28;20217;-52
2022/07/27 06:37:19;;;;;;;1.55;1.10;;;;;;;19.46;65.65;98704.53;4163557;28;20251;-51
2022/07/27 06:39:21;;;;;;;4.47;1.52;;;;;;;19.59;65.75;98710.09;4155998;28;20754;-51
2022/07/27 06:41:23;;;;;;;4.93;0.80;;;;;;;19.48;65.63;98708.66;4172344;28;20289;-53
2022/07/27 06:43:27;;;;;;;1.20;0.68;;;;;;;19.66;65.32;98706.97;4164565;28;20325;-53
2022/07/27 06:45:29;;;;;;;2.78;0.90;;;;;;;19.61;64.92;98709.81;4171722;28;20212;-52
2022/07/27 06:47:30;;;;;;;2.33;1.10;;;;;;;19.27;65.70;98712.88;4156285;28;20225;-53
2022/07/27 06:49:32;;;;;;;4.50;1.05;;;;;;;19.50;65.62;98708.31;4159772;28;20204;-51
2022/07/27 06:51:34;;;;;;;5.00;1.50;;;;;;;19.32;65.75;98709.19;4144666;28;20236;-53
2022/07/27 06:53:37;;;;;;;3.53;1.08;;;;;;;19.50;65.46;98705.53;4159756;28;20211;-52
2022/07/27 06:55:40;;;;;;;3.90;0.88;;;;;;;19.62;65.11;98705.91;4156146;28;20208;-52
2022/07/27 06:57:42;;;;;;;4.00;1.10;;;;;;;19.54;65.41;98709.38;4163845;28;20280;-52
2022/07/27 06:59:43;;;;;;;5.32;1.40;;;;;;;19.78;65.12;98707.31;4156897;28;20635;-52
2022/07/27 07:01:45;;;;;;;1.15;0.73;;;;;;;19.97;64.41;98710.84;4154081;28;20232;-53
2022/07/27 07:03:49;;;;;;;5.20;1.23;;;;;;;19.95;63.94;98702.81;4163189;28;20247;-53
2022/07/27 07:05:51;;;;;;;3.25;1.45;;;;;;;19.97;64.04;98705.28;4163780;28;20197;-53
2022/07/27 07:07:53;;;;;;;4.78;1.00;;;;;;;19.94;63.94;98717.00;4155895;28;20212;-53
2022/07/27 07:09:57;;;;;;;2.60;1.20;;;;;;;20.04;63.69;98702.94;4172139;28;20301;-53
2022/07/27 07:12:02;;;;;;;5.80;1.10;;;;;;;20.08;63.61;98710.38;4155819;28;20216;-54
2022/07/27 07:14:04;;;;;;;2.67;1.00;;;;;;;20.23;63.34;98710.09;4145114;28;20656;-53
2022/07/27 07:16:06;;;;;;;4.50;1.20;;;;;;;20.36;63.01;98719.56;4162848;28;20232;-53
2022/07/27 07:18:11;;;;;;;6.10;1.20;;;;;;;20.44;62.15;98721.63;4154632;28;20572;-52
2022/07/27 07:20:15;;;;;;;2.88;0.80;;;;;;;20.45;62.86;98723.28;4172386;28;20203;-54
2022/07/27 07:22:17;;;;;;;1.85;1.10;;;;;;;20.11;62.85;98720.06;4164548;28;20208;-54
2022/07/27 07:24:19;;;;;;;2.80;1.42;;;;;;;20.10;63.41;98722.00;4163453;28;21149;-53
2022/07/27 07:26:21;;;;;;;3.53;1.27;;;;;;;20.06;63.05;98720.97;4159500;28;20202;-53
2022/07/27 07:28:23;;;;;;;2.08;0.90;;;;;;;20.21;63.08;98725.41;4157552;28;20201;-53
2022/07/27 07:30:25;;;;;;;3.28;1.00;;;;;;;20.28;62.82;98717.50;4157939;28;20228;-52
2022/07/27 07:32:27;;;;;;;4.63;1.35;;;;;;;20.47;62.53;98724.63;4155086;28;20208;-53
2022/07/27 07:34:34;;;;;;;5.40;1.30;;;;;;;20.31;62.30;98722.47;4157086;28;20233;-53
2022/07/27 07:36:35;;;;;;;2.38;0.98;;;;;;;20.18;61.85;98715.72;4155309;28;20702;-53
2022/07/27 07:38:37;;;;;;;3.25;1.10;;;;;;;20.22;62.83;98711.22;4152661;28;20266;-53
2022/07/27 07:40:39;;;;;;;2.95;1.33;;;;;;;20.04;62.36;98712.09;4153869;28;20615;-53
2022/07/27 07:42:51;;;;;;;3.58;1.10;;;;;;;19.82;62.78;98714.72;4160811;28;20201;-53
2022/07/27 07:44:52;;;;;;;4.75;1.48;;;;;;;19.85;63.06;98713.28;4170988;28;20670;-52
2022/07/27 07:46:55;;;;;;;7.47;1.23;;;;;;;20.55;62.64;98715.56;4160713;28;20204;-51
2022/07/27 07:48:57;;;;;;;2.40;1.15;;;;;;;20.63;61.15;98713.97;4159621;28;20208;-51
2022/07/27 07:51:00;;;;;;;3.50;1.42;;;;;;;20.89;60.92;98717.91;4158206;28;20225;-52
2022/07/27 07:53:02;;;;;;;2.83;1.65;;;;;;;20.92;60.30;98714.50;4154133;28;20243;-51
2022/07/27 07:55:04;;;;;;;3.88;1.33;;;;;;;21.12;59.73;98717.66;4156499;28;20205;-51
2022/07/27 07:57:05;;;;;;;3.95;1.27;;;;;;;21.09;59.04;98709.94;4158112;28;20221;-51
2022/07/27 07:59:07;;;;;;;2.47;0.95;;;;;;;21.61;58.85;98714.81;4155572;28;20238;-51
2022/07/27 08:01:11;;;;;;;3.08;0.90;;;;;;;21.88;57.89;98713.84;4162857;28;20251;-51
2022/07/27 08:03:13;;;;;;;2.85;0.90;;;;;;;22.11;57.19;98707.13;4160547;28;20212;-52
2022/07/27 08:05:15;;;;;;;3.88;1.27;;;;;;;22.33;56.94;98710.69;4170106;28;20247;-52
2022/07/27 08:07:17;;;;;;;4.13;0.98;;;;;;;21.80;56.98;98706.28;4160193;28;20212;-51
2022/07/27 08:09:20;;;;;;;2.13;1.08;;;;;;;21.52;57.89;98711.13;4156105;28;20239;-51
2022/07/27 08:11:22;;;;;;;1.95;0.80;;;;;;;21.63;57.93;98708.94;4161304;28;20227;-52
2022/07/27 08:13:23;;;;;;;1.77;1.20;;;;;;;21.63;57.57;98714.50;4160126;28;20212;-52
2022/07/27 08:15:27;;;;;;;1.80;0.90;;;;;;;21.89;57.39;98705.19;4139640;28;20703;-52
2022/07/27 08:17:36;;;;;;;2.10;0.93;;;;;;;21.93;57.13;98710.94;4161424;28;20232;-52
2022/07/27 08:19:38;;;;;;;2.47;1.13;;;;;;;22.34;56.67;98711.50;4161900;28;20674;-52
2022/07/27 08:21:41;;;;;;;3.47;1.08;;;;;;;22.37;56.04;98710.88;4161569;28;20231;-52
2022/07/27 08:23:42;;;;;;;3.85;1.10;;;;;;;22.35;56.38;98707.56;4162911;28;20226;-52
2022/07/27 08:25:44;;;;;;;2.55;1.02;;;;;;;22.20;55.84;98711.59;4154313;28;20252;-52
2022/07/27 08:27:46;;;;;;;3.53;1.48;;;;;;;21.17;57.13;98708.38;4160952;28;20208;-52
2022/07/27 08:29:48;;;;;;;4.18;1.00;;;;;;;21.45;57.36;98718.28;4161828;28;20213;-52
2022/07/27 08:31:52;;;;;;;2.35;1.10;;;;;;;21.39;56.48;98713.97;4160578;28;20259;-52
2022/07/27 08:33:56;;;;;;;4.45;1.42;;;;;;;20.75;57.52;98711.50;4156568;28;20240;-52
2022/07/27 08:35:58;;;;;;;2.83;1.00;;;;;;;20.92;58.13;98711.72;4161732;28;20554;-51
2022/07/27 08:38:01;;;;;;;1.42;1.08;;;;;;;21.07;57.77;98711.38;4159780;28;20228;-51
2022/07/27 08:40:03;;;;;;;4.25;1.38;;;;;;;21.16;56.94;98707.53;4170904;28;20223;-52
2022/07/27 08:42:25;;;;;;;6.80;1.30;;;;;;;21.08;56.69;98705.50;4162943;28;20264;-51
2022/07/27 08:44:28;;;;;;;2.00;1.10;;;;;;;21.35;56.91;98710.16;4159781;28;20228;-52
2022/07/27 08:46:31;;;;;;;5.00;1.10;;;;;;;21.28;56.53;98720.91;4145717;28;20224;-53
2022/07/27 08:48:33;;;;;;;2.40;1.45;;;;;;;21.39;56.59;98722.31;4163289;28;20214;-52
2022/07/27 08:50:35;;;;;;;3.60;1.05;;;;;;;21.08;56.36;98721.38;4160460;28;20290;-52
2022/07/27 08:52:38;;;;;;;1.85;1.00;;;;;;;21.29;56.20;98722.56;4160256;28;20208;-51
2022/07/27 08:54:40;;;;;;;4.00;1.10;;;;;;;21.19;56.83;98718.03;4153756;28;20766;-52
2022/07/27 08:56:42;;;;;;;3.72;1.73;;;;;;;20.67;57.58;98720.59;4159825;28;20636;-52
2022/07/27 08:58:44;;;;;;;2.90;1.52;;;;;;;20.42;58.38;98718.31;4145161;28;20247;-51
2022/07/27 09:00:48;;;;;;;3.30;1.20;;;;;;;20.62;58.38;98717.91;4161231;28;20286;-51
2022/07/27 09:02:51;;;;;;;5.75;1.58;;;;;;;20.88;58.47;98727.41;4160907;28;20643;-52
2022/07/27 09:04:53;;;;;;;2.75;1.20;;;;;;;21.16;57.53;98723.41;4159852;28;20204;-52
2022/07/27 09:06:54;;;;;;;2.63;1.30;;;;;;;21.25;57.82;98727.13;4168280;28;20207;-53
2022/07/27 09:08:59;;;;;;;1.98;1.02;;;;;;;21.53;56.86;98725.88;4150922;28;20579;-53
2022/07/27 09:11:02;;;;;;;2.00;1.23;;;;;;;21.78;56.38;98726.09;4142009;28;20641;-52
2022/07/27 09:13:23;;;;;;;2.50;1.33;;;;;;;21.85;55.30;98725.66;4150050;28;20204;-52
2022/07/27 09:15:25;;;;;;;2.17;1.08;;;;;;;21.81;54.61;98725.47;4168000;28;20907;-52
2022/07/27 09:17:35;;;;;;;3.88;1.98;;;;;;;21.38;55.45;98727.06;4155862;28;20225;-52
2022/07/27 09:20:10;;;;;;;2.85;1.55;;;;;;;21.43;55.46;98723.34;4154303;28;20342;-52
2022/07/27 09:22:53;;;;;;;4.05;1.48;;;;;;;22.04;54.55;98724.28;4157805;28;20285;-51
2022/07/27 09:25:01;;;;;;;3.03;1.10;;;;;;;22.32;54.20;98724.94;4155743;28;20241;-52
2022/07/27 09:27:04;;;;;;;1.85;1.05;;;;;;;22.27;52.52;98731.50;4144056;28;20247;-52
2022/07/27 09:29:12;;;;;;;5.22;1.20;;;;;;;22.21;53.08;98729.16;4173308;28;20259;-52
2022/07/27 09:31:15;;;;;;;3.60;1.33;;;;;;;22.60;53.53;98727.25;4143633;28;20220;-52
2022/07/27 09:33:17;;;;;;;2.55;1.13;;;;;;;22.33;52.76;98738.56;4160192;28;20670;-52
2022/07/27 09:35:24;;;;;;;1.77;1.13;;;;;;;22.94;52.82;98726.50;4161816;28;20212;-53
2022/07/27 09:37:27;;;;;;;9.20;1.33;;;;;;;23.25;52.54;98718.88;4154136;28;20232;-53
2022/07/27 09:39:29;;;;;;;2.05;1.20;;;;;;;23.49;51.51;98727.56;4156275;28;20211;-54
2022/07/27 09:41:39;;;;;;;4.53;1.52;;;;;;;23.65;51.02;98720.34;4160804;28;20228;-54
2022/07/27 09:43:50;;;;;;;7.88;1.38;;;;;;;22.94;50.95;98734.88;4169986;28;20203;-54
2022/07/27 09:46:12;;;;;;;2.47;1.63;;;;;;;22.43;51.62;98729.13;4171041;28;20634;-52
2022/07/27 09:48:16;;;;;;;1.95;1.10;;;;;;;22.12;52.49;98740.25;4160227;28;20243;-54